createdAt,value
2022-09-05T03:58:55.322Z,1014.52
2022-09-05T03:59:27.788Z,1014.50
2022-09-05T04:00:27.775Z,1014.50
2022-09-05T04:04:10.891Z,1014.49
2022-09-05T04:07:01.998Z,1014.49
2022-09-05T04:08:14.680Z,1014.49
2022-09-05T04:08:16.719Z,1014.53
2022-09-05T04:08:23.638Z,1014.51
2022-09-05T04:08:28.021Z,1014.53
2022-09-05T04:08:31.680Z,1014.52
2022-09-05T04:08:38.555Z,1014.52
2022-09-05T04:09:49.301Z,1014.54
2022-09-05T04:10:29.548Z,1014.53
2022-09-05T04:11:29.393Z,1014.51
2022-09-05T04:12:29.359Z,1014.52
2022-09-05T04:13:29.383Z,1014.53
2022-09-05T04:14:29.389Z,1014.56
2022-09-05T04:15:29.367Z,1014.55
2022-09-05T04:16:28.775Z,1014.55
2022-09-05T04:17:29.379Z,1014.56
2022-09-05T04:18:33.260Z,1014.56
2022-09-05T04:19:29.363Z,1014.54
2022-09-05T04:20:29.409Z,1014.55
2022-09-05T04:21:29.374Z,1014.60
2022-09-05T04:22:29.424Z,1014.61
2022-09-05T04:23:29.396Z,1014.58
2022-09-05T04:24:29.381Z,1014.60
2022-09-05T04:25:29.378Z,1014.62
2022-09-05T04:26:29.405Z,1014.60
2022-09-05T04:27:29.379Z,1014.61
2022-09-05T04:28:29.422Z,1014.62
2022-09-05T04:29:28.910Z,1014.65
2022-09-05T04:30:39.853Z,1014.69
2022-09-05T04:31:29.445Z,1014.65
2022-09-05T04:32:29.443Z,1014.70
2022-09-05T04:33:33.476Z,1014.70
2022-09-05T04:34:29.380Z,1014.70
2022-09-05T04:35:29.396Z,1014.74
2022-09-05T04:36:29.391Z,1014.72
2022-09-05T04:37:29.384Z,1014.71
2022-09-05T04:38:29.421Z,1014.69
2022-09-05T04:39:29.437Z,1014.73
2022-09-05T04:40:32.255Z,1014.71
2022-09-05T04:41:38.998Z,1014.73
2022-09-05T04:42:27.661Z,1014.76
2022-09-05T04:43:28.909Z,1014.74
2022-09-05T04:44:27.646Z,1014.76
2022-09-05T04:45:27.667Z,1014.76
2022-09-05T04:46:28.679Z,1014.76
2022-09-05T04:47:27.671Z,1014.77
2022-09-05T04:48:29.411Z,1014.75
2022-09-05T04:49:28.664Z,1014.79
2022-09-05T04:50:37.647Z,1014.77
2022-09-05T04:51:28.657Z,1014.83
2022-09-05T04:52:31.662Z,1014.81
2022-09-05T04:53:29.419Z,1014.81
2022-09-05T04:54:30.296Z,1014.83
2022-09-05T04:55:28.638Z,1014.82
2022-09-05T04:56:27.623Z,1014.82
2022-09-05T04:57:29.411Z,1014.83
2022-09-05T04:58:40.488Z,1014.82
2022-09-05T05:02:36.714Z,1014.86
2022-09-05T05:05:58.628Z,1014.84
2022-09-05T05:06:02.510Z,1014.86
2022-09-05T05:06:08.357Z,1014.88
2022-09-05T05:06:12.748Z,1014.89
2022-09-05T05:06:14.654Z,1014.88
2022-09-05T05:06:19.734Z,1014.86
2022-09-05T05:06:43.775Z,1014.91
2022-09-05T05:07:27.701Z,1014.91
2022-09-05T05:08:38.101Z,1014.92
2022-09-05T05:09:27.620Z,1014.95
2022-09-05T05:12:06.842Z,1014.94
2022-09-05T05:17:55.651Z,1014.99
2022-09-05T05:17:55.706Z,1014.97
2022-09-05T05:17:57.583Z,1014.96
2022-09-05T05:17:57.651Z,1014.98
2022-09-05T05:18:08.632Z,1014.95
2022-09-05T05:18:09.768Z,1014.97
2022-09-05T05:18:14.370Z,1014.92
2022-09-05T05:18:41.224Z,1014.95
2022-09-05T05:19:29.487Z,1014.97
2022-09-05T05:20:40.353Z,1014.94
2022-09-05T05:21:29.456Z,1014.95
2022-09-05T05:22:29.441Z,1014.97
2022-09-05T05:23:28.565Z,1015.02
2022-09-05T05:24:29.453Z,1015.01
2022-09-05T05:25:28.967Z,1015.02
2022-09-05T05:26:27.574Z,1015.00
2022-09-05T05:27:27.561Z,1015.04
2022-09-05T05:28:27.825Z,1015.05
2022-09-05T05:29:27.630Z,1015.02
2022-09-05T05:30:28.950Z,1015.07
2022-09-05T05:31:27.648Z,1015.06
2022-09-05T05:32:34.550Z,1015.04
2022-09-05T05:33:27.571Z,1015.08
2022-09-05T05:34:29.073Z,1015.10
2022-09-05T05:35:27.561Z,1015.06
2022-09-05T05:36:28.950Z,1015.07
2022-09-05T05:37:27.570Z,1015.08
2022-09-05T05:38:28.952Z,1015.04
2022-09-05T05:39:27.643Z,1015.06
2022-09-05T05:40:27.556Z,1015.03
2022-09-05T05:41:29.952Z,1015.04
2022-09-05T05:42:27.551Z,1015.08
2022-09-05T05:43:28.956Z,1015.07
2022-09-05T05:44:28.592Z,1015.03
2022-09-05T05:45:28.979Z,1015.01
2022-09-05T05:46:27.625Z,1015.03
2022-09-05T05:47:31.324Z,1015.02
2022-09-05T05:48:27.574Z,1015.06
2022-09-05T05:49:29.643Z,1015.07
2022-09-05T05:50:30.694Z,1015.07
2022-09-05T05:51:36.484Z,1015.08
2022-09-05T05:52:31.990Z,1015.06
2022-09-05T05:53:31.945Z,1015.05
2022-09-05T05:54:27.540Z,1015.08
2022-09-05T05:55:52.261Z,1015.06
2022-09-05T05:56:27.770Z,1015.09
2022-09-05T05:57:30.480Z,1015.05
2022-09-05T05:58:32.928Z,1015.05
2022-09-05T05:59:28.557Z,1015.09
2022-09-05T06:00:28.268Z,1015.10
2022-09-05T06:01:37.795Z,1015.11
2022-09-05T06:02:27.665Z,1015.11
2022-09-05T06:03:29.639Z,1015.11
2022-09-05T06:04:27.659Z,1015.16
2022-09-05T06:05:29.547Z,1015.17
2022-09-05T06:06:29.460Z,1015.20
2022-09-05T06:07:33.359Z,1015.17
2022-09-05T06:11:11.014Z,1015.16
2022-09-05T06:14:47.824Z,1015.19
2022-09-05T06:14:50.284Z,1015.20
2022-09-05T06:14:54.850Z,1015.19
2022-09-05T06:14:58.128Z,1015.15
2022-09-05T06:14:58.565Z,1015.17
2022-09-05T06:15:08.722Z,1015.18
2022-09-05T06:15:30.079Z,1015.17
2022-09-05T06:16:28.639Z,1015.17
2022-09-05T06:17:28.069Z,1015.20
2022-09-05T06:18:29.478Z,1015.17
2022-09-05T06:19:31.819Z,1015.20
2022-09-05T06:22:05.701Z,1015.24
2022-09-05T06:22:11.673Z,1015.22
2022-09-05T06:22:27.512Z,1015.22
2022-09-05T06:23:39.539Z,1015.20
2022-09-05T06:24:29.058Z,1015.25
2022-09-05T06:25:27.553Z,1015.22
2022-09-05T06:26:29.650Z,1015.24
2022-09-05T06:27:27.467Z,1015.22
2022-09-05T06:28:27.482Z,1015.24
2022-09-05T06:29:34.638Z,1015.23
2022-09-05T06:30:27.463Z,1015.24
2022-09-05T06:31:31.788Z,1015.23
2022-09-05T06:32:27.459Z,1015.21
2022-09-05T06:33:28.504Z,1015.19
2022-09-05T06:34:35.436Z,1015.20
2022-09-05T06:35:28.525Z,1015.18
2022-09-05T06:36:27.601Z,1015.20
2022-09-05T06:37:27.463Z,1015.22
2022-09-05T06:38:28.512Z,1015.23
2022-09-05T06:39:28.561Z,1015.22
2022-09-05T06:40:32.050Z,1015.20
2022-09-05T06:41:27.486Z,1015.25
2022-09-05T06:42:42.993Z,1015.25
2022-09-05T06:43:29.014Z,1015.29
2022-09-05T06:44:27.536Z,1015.26
2022-09-05T06:45:28.919Z,1015.27
2022-09-05T06:46:54.521Z,1015.28
2022-09-05T06:47:34.021Z,1015.29
2022-09-05T06:48:44.674Z,1015.25
2022-09-05T06:49:33.375Z,1015.28
2022-09-05T06:50:28.748Z,1015.27
2022-09-05T06:51:28.748Z,1015.26
2022-09-05T06:52:30.279Z,1015.32
2022-09-05T06:53:28.643Z,1015.32
2022-09-05T06:54:29.546Z,1015.29
2022-09-05T06:55:29.098Z,1015.31
2022-09-05T06:56:29.039Z,1015.29
2022-09-05T06:57:29.010Z,1015.33
2022-09-05T06:58:29.013Z,1015.32
2022-09-05T06:59:29.030Z,1015.30
2022-09-05T07:00:29.087Z,1015.29
2022-09-05T07:01:29.030Z,1015.27
2022-09-05T07:02:58.678Z,1015.29
2022-09-05T07:03:29.465Z,1015.26
2022-09-05T07:04:53.619Z,1015.29
2022-09-05T07:05:38.957Z,1015.29
2022-09-05T07:06:41.439Z,1015.28
2022-09-05T07:07:28.669Z,1015.33
2022-09-05T07:08:34.130Z,1015.32
2022-09-05T07:09:29.010Z,1015.33
2022-09-05T07:10:38.429Z,1015.37
2022-09-05T07:11:29.027Z,1015.38
2022-09-05T07:12:30.454Z,1015.39
2022-09-05T07:13:29.041Z,1015.39
2022-09-05T07:14:29.056Z,1015.42
2022-09-05T07:15:27.432Z,1015.46
2022-09-05T07:16:37.911Z,1015.41
2022-09-05T07:17:29.032Z,1015.44
2022-09-05T07:18:29.073Z,1015.43
2022-09-05T07:19:29.150Z,1015.43
2022-09-05T07:20:28.486Z,1015.42
2022-09-05T07:21:29.626Z,1015.45
2022-09-05T07:22:36.269Z,1015.45
2022-09-05T07:23:56.436Z,1015.41
2022-09-05T07:24:53.379Z,1015.46
2022-09-05T07:25:30.331Z,1015.42
2022-09-05T07:26:53.657Z,1015.41
2022-09-05T07:27:29.103Z,1015.44
2022-09-05T07:28:30.507Z,1015.41
2022-09-05T07:29:29.048Z,1015.43
2022-09-05T07:30:27.692Z,1015.46
2022-09-05T07:31:37.523Z,1015.47
2022-09-05T07:32:33.570Z,1015.45
2022-09-05T07:33:27.456Z,1015.42
2022-09-05T07:34:27.925Z,1015.47
2022-09-05T07:35:29.070Z,1015.51
2022-09-05T07:36:27.425Z,1015.49
2022-09-05T07:37:27.411Z,1015.48
2022-09-05T07:38:54.951Z,1015.45
2022-09-05T07:39:29.411Z,1015.47
2022-09-05T07:40:38.187Z,1015.47
2022-09-05T07:41:29.003Z,1015.43
2022-09-05T07:42:29.076Z,1015.46
2022-09-05T07:43:27.562Z,1015.46
2022-09-05T07:44:27.413Z,1015.47
2022-09-05T07:45:29.623Z,1015.47
2022-09-05T07:46:27.422Z,1015.54
2022-09-05T07:47:54.686Z,1015.50
2022-09-05T07:48:52.861Z,1015.49
2022-09-05T07:49:39.897Z,1015.54
2022-09-05T07:53:38.846Z,1015.51
2022-09-05T07:56:47.608Z,1015.47
2022-09-05T07:56:52.164Z,1015.48
2022-09-05T07:56:52.410Z,1015.48
2022-09-05T07:56:55.104Z,1015.52
2022-09-05T07:56:56.380Z,1015.47
2022-09-05T07:57:01.600Z,1015.48
2022-09-05T07:57:31.959Z,1015.46
2022-09-05T07:58:29.084Z,1015.45
2022-09-05T07:59:27.421Z,1015.44
2022-09-05T08:00:29.552Z,1015.45
2022-09-05T08:01:28.485Z,1015.47
2022-09-05T08:02:29.151Z,1015.46
2022-09-05T08:03:28.580Z,1015.45
2022-09-05T08:04:28.419Z,1015.47
2022-09-05T08:05:34.908Z,1015.45
2022-09-05T08:07:11.952Z,1015.43
2022-09-05T08:07:48.759Z,1015.46
2022-09-05T08:08:28.603Z,1015.45
2022-09-05T08:10:05.583Z,1015.45
2022-09-05T08:10:35.788Z,1015.47
2022-09-05T08:11:27.807Z,1015.50
2022-09-05T08:12:27.749Z,1015.48
2022-09-05T08:13:29.123Z,1015.49
2022-09-05T08:14:44.296Z,1015.48
2022-09-05T08:15:27.428Z,1015.52
2022-09-05T08:16:28.713Z,1015.47
2022-09-05T08:17:30.304Z,1015.48
2022-09-05T08:18:28.620Z,1015.46
2022-09-05T08:19:27.417Z,1015.47
2022-09-05T08:20:29.089Z,1015.44
2022-09-05T08:21:29.104Z,1015.49
2022-09-05T08:22:28.425Z,1015.42
2022-09-05T08:23:29.141Z,1015.42
2022-09-05T08:24:29.099Z,1015.44
2022-09-05T08:25:34.952Z,1015.43
2022-09-05T08:26:29.125Z,1015.45
2022-09-05T08:27:28.432Z,1015.41
2022-09-05T08:28:37.645Z,1015.42
2022-09-05T08:29:29.091Z,1015.43
2022-09-05T08:30:29.480Z,1015.45
2022-09-05T08:31:29.125Z,1015.44
2022-09-05T08:32:33.356Z,1015.45
2022-09-05T08:33:29.109Z,1015.43
2022-09-05T08:34:44.278Z,1015.46
2022-09-05T08:35:29.204Z,1015.45
2022-09-05T08:36:28.473Z,1015.46
2022-09-05T08:37:28.647Z,1015.44
2022-09-05T08:38:29.167Z,1015.42
2022-09-05T08:39:28.690Z,1015.42
2022-09-05T08:40:29.184Z,1015.41
2022-09-05T08:41:51.152Z,1015.39
2022-09-05T08:42:29.121Z,1015.39
2022-09-05T08:46:40.433Z,1015.40
2022-09-05T08:46:40.698Z,1015.40
2022-09-05T08:46:43.589Z,1015.38
2022-09-05T08:46:43.898Z,1015.40
2022-09-05T08:47:27.751Z,1015.37
2022-09-05T08:48:28.638Z,1015.36
2022-09-05T08:49:32.224Z,1015.39
2022-09-05T08:50:27.487Z,1015.37
2022-09-05T08:51:28.465Z,1015.38
2022-09-05T08:52:29.121Z,1015.35
2022-09-05T08:53:45.347Z,1015.32
2022-09-05T08:54:29.227Z,1015.31
2022-09-05T08:55:28.819Z,1015.33
2022-09-05T08:56:29.121Z,1015.32
2022-09-05T08:57:29.132Z,1015.34
2022-09-05T08:58:29.136Z,1015.35
2022-09-05T08:59:32.709Z,1015.35
2022-09-05T09:00:31.414Z,1015.33
2022-09-05T09:01:29.752Z,1015.31
2022-09-05T09:02:47.990Z,1015.31
2022-09-05T09:03:28.614Z,1015.28
2022-09-05T09:04:54.076Z,1015.27
2022-09-05T09:05:59.366Z,1015.23
2022-09-05T09:06:27.877Z,1015.21
2022-09-05T09:07:51.055Z,1015.20
2022-09-05T09:08:28.712Z,1015.18
2022-09-05T09:09:27.507Z,1015.14
2022-09-05T09:10:27.525Z,1015.15
2022-09-05T09:11:27.493Z,1015.16
2022-09-05T09:12:28.692Z,1015.14
2022-09-05T09:13:28.145Z,1015.12
2022-09-05T09:14:30.769Z,1015.11
2022-09-05T09:15:27.487Z,1015.13
2022-09-05T09:16:28.561Z,1015.10
2022-09-05T09:17:28.682Z,1015.12
2022-09-05T09:18:27.544Z,1015.06
2022-09-05T09:19:29.306Z,1015.10
2022-09-05T09:20:27.529Z,1015.05
2022-09-05T09:21:27.537Z,1015.07
2022-09-05T09:22:28.663Z,1015.07
2022-09-05T09:23:29.807Z,1015.07
2022-09-05T09:24:29.149Z,1015.06
2022-09-05T09:25:30.737Z,1015.07
2022-09-05T09:26:28.317Z,1015.04
2022-09-05T09:28:11.312Z,1015.07
2022-09-05T09:28:48.243Z,1015.03
2022-09-05T09:29:35.827Z,1015.02
2022-09-05T09:30:27.557Z,1014.98
2022-09-05T09:31:34.923Z,1014.97
2022-09-05T09:32:27.799Z,1014.97
2022-09-05T09:33:29.650Z,1014.96
2022-09-05T09:34:28.348Z,1014.99
2022-09-05T09:35:31.025Z,1014.94
2022-09-05T09:36:30.412Z,1014.92
2022-09-05T09:37:50.877Z,1014.89
2022-09-05T09:38:33.940Z,1014.89
2022-09-05T09:39:38.759Z,1014.85
2022-09-05T09:40:27.584Z,1014.83
2022-09-05T09:41:28.461Z,1014.81
2022-09-05T09:42:33.712Z,1014.88
2022-09-05T09:43:33.229Z,1014.83
2022-09-05T09:44:29.247Z,1014.82
2022-09-05T09:45:30.276Z,1014.86
2022-09-05T09:46:28.601Z,1014.82
2022-09-05T09:47:27.645Z,1014.82
2022-09-05T09:48:29.702Z,1014.83
2022-09-05T09:49:29.265Z,1014.82
2022-09-05T09:50:27.601Z,1014.79
2022-09-05T09:51:28.181Z,1014.82
2022-09-05T09:52:27.601Z,1014.83
2022-09-05T09:53:29.204Z,1014.82
2022-09-05T09:54:29.218Z,1014.83
2022-09-05T09:55:28.642Z,1014.84
2022-09-05T09:56:29.182Z,1014.84
2022-09-05T09:57:27.594Z,1014.85
2022-09-05T09:58:32.812Z,1014.80
2022-09-05T09:59:30.241Z,1014.81
2022-09-05T10:00:27.627Z,1014.85
2022-09-05T10:01:35.315Z,1014.82
2022-09-05T10:12:43.123Z,1014.71
2022-09-05T10:13:41.530Z,1014.71
2022-09-05T10:14:49.112Z,1014.73
2022-09-05T10:15:42.186Z,1014.70
2022-09-05T10:16:44.104Z,1014.70
2022-09-05T10:17:42.610Z,1014.71
2022-09-05T10:18:42.516Z,1014.70
2022-09-05T10:20:12.106Z,1014.69
2022-09-05T10:20:43.108Z,1014.70
2022-09-05T10:21:43.138Z,1014.67
2022-09-05T10:22:42.645Z,1014.72
2022-09-05T10:23:44.633Z,1014.68
2022-09-05T10:24:42.622Z,1014.69
2022-09-05T10:25:43.135Z,1014.64
2022-09-05T10:26:42.613Z,1014.62
2022-09-05T10:27:44.714Z,1014.62
2022-09-05T10:28:42.549Z,1014.65
2022-09-05T10:29:43.195Z,1014.62
2022-09-05T10:32:13.712Z,1014.65
2022-09-05T10:33:46.888Z,1014.64
2022-09-05T10:35:07.807Z,1014.59
2022-09-05T10:35:14.790Z,1014.60
2022-09-05T10:35:22.834Z,1014.56
2022-09-05T10:35:43.212Z,1014.56
2022-09-05T10:36:41.579Z,1014.58
2022-09-05T10:37:44.178Z,1014.58
2022-09-05T10:38:42.962Z,1014.61
2022-09-05T10:39:41.683Z,1014.55
2022-09-05T10:41:11.221Z,1014.61
2022-09-05T10:41:41.608Z,1014.54
2022-09-05T10:43:43.148Z,1014.56
2022-09-05T10:44:41.609Z,1014.53
2022-09-05T10:45:41.657Z,1014.50
2022-09-05T10:46:54.854Z,1014.51
2022-09-05T10:47:43.149Z,1014.49
2022-09-05T10:48:42.634Z,1014.47
2022-09-05T10:49:42.661Z,1014.43
2022-09-05T10:50:41.646Z,1014.41
2022-09-05T10:51:41.639Z,1014.41
2022-09-05T10:52:43.170Z,1014.41
2022-09-05T10:53:41.670Z,1014.41
2022-09-05T10:54:43.642Z,1014.43
2022-09-05T10:55:41.662Z,1014.42
2022-09-05T10:56:42.658Z,1014.42
2022-09-05T10:57:43.665Z,1014.37
2022-09-05T10:59:37.413Z,1014.39
2022-09-05T11:02:20.026Z,1014.37
2022-09-05T11:02:20.876Z,1014.35
2022-09-05T11:02:27.527Z,1014.38
2022-09-05T11:02:47.237Z,1014.39
2022-09-05T11:03:42.850Z,1014.35
2022-09-05T11:04:46.695Z,1014.33
2022-09-05T11:05:42.781Z,1014.32
2022-09-05T11:06:41.714Z,1014.32
2022-09-05T11:07:43.679Z,1014.28
2022-09-05T11:08:41.732Z,1014.26
2022-09-05T11:09:43.704Z,1014.22
2022-09-05T11:10:41.753Z,1014.24
2022-09-05T11:11:43.668Z,1014.21
2022-09-05T11:12:42.814Z,1014.21
2022-09-05T11:13:41.845Z,1014.24
2022-09-05T11:14:41.837Z,1014.18
2022-09-05T11:15:51.197Z,1014.18
2022-09-05T11:16:42.253Z,1014.19
2022-09-05T11:17:43.799Z,1014.21
2022-09-05T11:18:54.634Z,1014.20
2022-09-05T11:19:41.888Z,1014.19
2022-09-05T11:20:43.679Z,1014.19
2022-09-05T11:21:43.688Z,1014.17
2022-09-05T11:22:51.627Z,1014.16
2022-09-05T11:23:47.100Z,1014.22
2022-09-05T11:24:44.004Z,1014.20
2022-09-05T11:25:43.204Z,1014.20
2022-09-05T11:26:43.677Z,1014.17
2022-09-05T11:27:43.739Z,1014.16
2022-09-05T11:28:59.905Z,1014.14
2022-09-05T11:29:43.711Z,1014.16
2022-09-05T11:30:43.842Z,1014.15
2022-09-05T11:33:37.245Z,1014.18
2022-09-05T11:36:54.644Z,1014.16
2022-09-05T11:39:46.973Z,1014.14
2022-09-05T11:39:52.945Z,1014.18
2022-09-05T11:40:02.338Z,1014.04
2022-09-05T11:40:04.813Z,1014.12
2022-09-05T11:40:07.047Z,1014.05
2022-09-05T11:40:09.882Z,1014.12
2022-09-05T11:40:10.856Z,1014.11
2022-09-05T11:41:01.044Z,1014.05
2022-09-05T11:41:42.170Z,1014.02
2022-09-05T11:42:42.058Z,1014.04
2022-09-05T11:43:41.993Z,1014.08
2022-09-05T11:44:42.223Z,1014.08
2022-09-05T11:45:43.720Z,1014.06
2022-09-05T11:46:42.022Z,1014.05
2022-09-05T11:47:44.779Z,1014.03
2022-09-05T11:48:46.595Z,1013.96
2022-09-05T11:49:41.963Z,1014.00
2022-09-05T11:50:43.712Z,1014.00
2022-09-05T11:51:43.748Z,1014.02
2022-09-05T11:52:43.723Z,1013.97
2022-09-05T11:53:41.984Z,1014.05
2022-09-05T11:54:43.767Z,1014.01
2022-09-05T11:55:42.789Z,1013.99
2022-09-05T11:56:45.689Z,1013.97
2022-09-05T11:57:43.715Z,1013.88
2022-09-05T11:58:45.899Z,1013.89
2022-09-05T11:59:45.063Z,1013.88
2022-09-05T12:00:43.718Z,1013.83
2022-09-05T12:01:44.390Z,1013.83
2022-09-05T12:02:42.147Z,1013.80
2022-09-05T12:03:58.776Z,1013.83
2022-09-05T12:04:43.820Z,1013.85
2022-09-05T12:05:50.167Z,1013.83
2022-09-05T12:06:47.802Z,1013.83
2022-09-05T12:07:43.745Z,1013.94
2022-09-05T12:08:43.741Z,1013.93
2022-09-05T12:09:43.796Z,1013.91
2022-09-05T12:10:47.010Z,1013.90
2022-09-05T12:11:43.990Z,1013.85
2022-09-05T12:12:43.779Z,1013.84
2022-09-05T12:13:44.777Z,1013.84
2022-09-05T12:14:49.377Z,1013.86
2022-09-05T12:15:49.337Z,1013.85
2022-09-05T12:16:43.802Z,1013.82
2022-09-05T12:17:43.294Z,1013.80
2022-09-05T12:18:43.740Z,1013.78
2022-09-05T12:19:43.756Z,1013.81
2022-09-05T12:20:43.577Z,1013.89
2022-09-05T12:21:49.994Z,1013.82
2022-09-05T12:22:42.256Z,1013.81
2022-09-05T12:24:12.685Z,1013.83
2022-09-05T12:25:24.908Z,1013.81
2022-09-05T12:27:40.543Z,1013.77
2022-09-05T12:27:41.541Z,1013.74
2022-09-05T12:27:46.430Z,1013.70
2022-09-05T12:29:29.053Z,1013.68
2022-09-05T12:29:48.482Z,1013.67
2022-09-05T12:31:46.646Z,1013.65
2022-09-05T12:33:16.186Z,1013.66
2022-09-05T12:35:44.010Z,1013.68
2022-09-05T12:36:03.952Z,1013.68
2022-09-05T12:36:05.164Z,1013.66
2022-09-05T12:36:11.513Z,1013.64
2022-09-05T12:40:51.954Z,1013.64
2022-09-05T12:40:54.867Z,1013.68
2022-09-05T12:40:58.170Z,1013.70
2022-09-05T12:41:14.782Z,1013.65
2022-09-05T12:41:38.267Z,1013.64
2022-09-05T12:42:13.760Z,1013.64
2022-09-05T12:42:51.168Z,1013.67
2022-09-05T12:44:38.344Z,1013.67
2022-09-05T12:44:45.921Z,1013.64
2022-09-05T12:45:43.653Z,1013.62
2022-09-05T12:46:42.334Z,1013.65
2022-09-05T12:47:44.289Z,1013.66
2022-09-05T12:48:43.341Z,1013.61
2022-09-05T12:49:51.808Z,1013.64
2022-09-05T12:50:43.363Z,1013.67
2022-09-05T12:51:46.039Z,1013.64
2022-09-05T12:52:44.292Z,1013.62
2022-09-05T12:53:44.278Z,1013.62
2022-09-05T12:54:43.398Z,1013.60
2022-09-05T12:55:46.986Z,1013.57
2022-09-05T12:59:55.271Z,1013.54
2022-09-05T13:02:26.467Z,1013.56
2022-09-05T13:02:57.087Z,1013.56
2022-09-05T13:03:04.679Z,1013.47
2022-09-05T13:03:11.348Z,1013.50
2022-09-05T13:03:13.876Z,1013.49
2022-09-05T13:03:14.117Z,1013.49
2022-09-05T13:04:05.935Z,1013.53
2022-09-05T13:05:01.507Z,1013.54
2022-09-05T13:05:44.448Z,1013.52
2022-09-05T13:06:44.552Z,1013.51
2022-09-05T13:07:42.498Z,1013.54
2022-09-05T13:08:42.502Z,1013.49
2022-09-05T13:11:28.176Z,1013.51
2022-09-05T13:14:50.140Z,1013.55
2022-09-05T13:14:54.747Z,1013.52
2022-09-05T13:14:56.824Z,1013.50
2022-09-05T13:15:00.998Z,1013.47
2022-09-05T13:15:02.309Z,1013.51
2022-09-05T13:15:43.889Z,1013.51
2022-09-05T13:16:42.584Z,1013.53
2022-09-05T13:17:44.318Z,1013.51
2022-09-05T13:18:42.617Z,1013.52
2022-09-05T13:19:43.835Z,1013.48
2022-09-05T13:20:42.626Z,1013.45
2022-09-05T13:21:42.639Z,1013.46
2022-09-05T13:22:48.572Z,1013.45
2022-09-05T13:23:48.658Z,1013.41
2022-09-05T13:24:44.325Z,1013.48
2022-09-05T13:25:44.326Z,1013.45
2022-09-05T13:26:44.373Z,1013.44
2022-09-05T13:27:44.335Z,1013.45
2022-09-05T13:28:44.327Z,1013.45
2022-09-05T13:31:12.399Z,1013.46
2022-09-05T13:34:39.165Z,1013.43
2022-09-05T13:37:58.100Z,1013.44
2022-09-05T13:37:58.717Z,1013.41
2022-09-05T13:38:02.434Z,1013.39
2022-09-05T13:38:15.898Z,1013.35
2022-09-05T13:38:19.875Z,1013.33
2022-09-05T13:38:20.156Z,1013.38
2022-09-05T13:38:20.933Z,1013.35
2022-09-05T13:38:49.479Z,1013.35
2022-09-05T13:39:44.524Z,1013.30
2022-09-05T13:40:44.516Z,1013.31
2022-09-05T13:41:44.347Z,1013.29
2022-09-05T13:42:44.375Z,1013.29
2022-09-05T13:43:44.853Z,1013.30
2022-09-05T13:44:44.869Z,1013.36
2022-09-05T13:45:44.926Z,1013.30
2022-09-05T13:46:44.870Z,1013.24
2022-09-05T13:47:44.886Z,1013.24
2022-09-05T13:49:44.864Z,1013.26
2022-09-05T13:50:44.898Z,1013.28
2022-09-05T13:51:44.903Z,1013.27
2022-09-05T13:52:44.856Z,1013.25
2022-09-05T13:53:42.994Z,1013.26
2022-09-05T13:54:45.520Z,1013.22
2022-09-05T13:55:43.007Z,1013.20
2022-09-05T13:56:43.023Z,1013.17
2022-09-05T13:57:44.882Z,1013.17
2022-09-05T13:58:56.805Z,1013.15
2022-09-05T13:59:43.046Z,1013.14
2022-09-05T14:00:43.075Z,1013.14
2022-09-05T14:01:48.417Z,1013.15
2022-09-05T14:03:44.378Z,1013.13
2022-09-05T14:05:43.174Z,1013.10
2022-09-05T14:06:45.940Z,1013.05
2022-09-05T14:07:44.661Z,1013.08
2022-09-05T14:08:44.961Z,1013.10
2022-09-05T14:09:44.182Z,1013.10
2022-09-05T14:10:43.192Z,1013.12
2022-09-05T14:11:45.098Z,1013.10
2022-09-05T14:12:44.489Z,1013.10
2022-09-05T14:13:44.397Z,1013.08
2022-09-05T14:15:44.258Z,1013.08
2022-09-05T14:16:54.102Z,1013.05
2022-09-05T14:17:51.170Z,1013.07
2022-09-05T14:18:44.915Z,1012.99
2022-09-05T14:19:43.695Z,1013.01
2022-09-05T14:20:49.856Z,1013.01
2022-09-05T14:21:43.328Z,1012.99
2022-09-05T14:22:45.010Z,1013.02
2022-09-05T14:23:44.419Z,1012.95
2022-09-05T14:24:44.412Z,1012.93
2022-09-05T14:25:44.411Z,1012.96
2022-09-05T14:26:43.383Z,1012.89
2022-09-05T14:27:44.912Z,1012.91
2022-09-05T14:28:46.581Z,1012.85
2022-09-05T14:29:45.423Z,1012.86
2022-09-05T14:32:56.059Z,1012.81
2022-09-05T14:37:40.948Z,1012.87
2022-09-05T14:37:43.764Z,1012.87
2022-09-05T14:37:44.561Z,1012.85
2022-09-05T14:37:55.110Z,1012.84
2022-09-05T14:37:55.226Z,1012.86
2022-09-05T14:38:00.773Z,1012.84
2022-09-05T14:38:04.209Z,1012.83
2022-09-05T14:38:45.021Z,1012.79
2022-09-05T14:39:45.571Z,1012.80
2022-09-05T14:40:43.750Z,1012.81
2022-09-05T14:41:44.430Z,1012.80
2022-09-05T14:42:45.438Z,1012.74
2022-09-05T14:43:44.946Z,1012.76
2022-09-05T14:44:43.620Z,1012.73
2022-09-05T14:45:43.998Z,1012.75
2022-09-05T14:46:43.836Z,1012.76
2022-09-05T14:47:47.350Z,1012.77
2022-09-05T14:48:43.656Z,1012.76
2022-09-05T14:49:43.660Z,1012.75
2022-09-05T14:50:46.229Z,1012.76
2022-09-05T14:51:43.690Z,1012.73
2022-09-05T14:52:44.954Z,1012.77
2022-09-05T14:53:59.230Z,1012.77
2022-09-05T14:55:44.978Z,1012.76
2022-09-05T14:57:27.290Z,1012.75
2022-09-05T15:02:38.281Z,1012.76
2022-09-05T15:02:41.334Z,1012.74
2022-09-05T15:02:43.732Z,1012.76
2022-09-05T15:02:51.038Z,1012.76
2022-09-05T15:02:51.877Z,1012.74
2022-09-05T15:03:00.567Z,1012.75
2022-09-05T15:04:45.497Z,1012.76
2022-09-05T15:05:45.462Z,1012.73
2022-09-05T15:06:45.450Z,1012.73
2022-09-05T15:07:45.490Z,1012.73
2022-09-05T15:11:23.807Z,1012.68
2022-09-05T15:11:24.154Z,1012.71
2022-09-05T15:12:15.832Z,1012.69
2022-09-05T15:12:24.184Z,1012.66
2022-09-05T15:12:50.488Z,1012.67
2022-09-05T15:13:45.480Z,1012.64
2022-09-05T15:14:45.463Z,1012.61
2022-09-05T15:15:46.230Z,1012.62
2022-09-05T15:16:45.564Z,1012.60
2022-09-05T15:17:45.498Z,1012.59
2022-09-05T15:18:45.510Z,1012.61
2022-09-05T15:19:47.287Z,1012.61
2022-09-05T15:20:45.493Z,1012.65
2022-09-05T15:21:45.468Z,1012.65
2022-09-05T15:22:48.040Z,1012.67
2022-09-05T15:23:46.185Z,1012.68
2022-09-05T15:24:45.498Z,1012.66
2022-09-05T15:25:45.503Z,1012.63
2022-09-05T15:26:44.997Z,1012.64
2022-09-05T15:27:44.053Z,1012.63
2022-09-05T15:28:44.031Z,1012.65
2022-09-05T15:29:44.024Z,1012.68
2022-09-05T15:30:46.039Z,1012.69
2022-09-05T15:31:44.043Z,1012.70
2022-09-05T15:32:50.347Z,1012.69
2022-09-05T15:33:45.050Z,1012.67
2022-09-05T15:34:45.506Z,1012.70
2022-09-05T15:35:45.512Z,1012.63
2022-09-05T15:36:46.003Z,1012.66
2022-09-05T15:37:44.070Z,1012.63
2022-09-05T15:38:55.422Z,1012.63
2022-09-05T15:39:45.150Z,1012.63
2022-09-05T15:40:45.513Z,1012.63
2022-09-05T15:41:46.020Z,1012.63
2022-09-05T15:42:45.516Z,1012.62
2022-09-05T15:43:44.104Z,1012.61
2022-09-05T15:45:06.364Z,1012.57
2022-09-05T15:45:45.159Z,1012.57
2022-09-05T15:46:44.127Z,1012.57
2022-09-05T15:47:45.135Z,1012.52
2022-09-05T15:48:46.116Z,1012.50
2022-09-05T15:49:44.143Z,1012.50
2022-09-05T15:50:46.020Z,1012.50
2022-09-05T15:51:46.021Z,1012.49
2022-09-05T15:52:44.173Z,1012.42
2022-09-05T15:53:46.036Z,1012.41
2022-09-05T15:54:46.396Z,1012.44
2022-09-05T15:55:46.037Z,1012.43
2022-09-05T15:56:46.043Z,1012.42
2022-09-05T15:57:44.188Z,1012.44
2022-09-05T15:58:53.989Z,1012.43
2022-09-05T15:59:44.216Z,1012.42
2022-09-05T16:12:16.744Z,1012.39
2022-09-05T16:13:03.083Z,1012.42
2022-09-05T16:14:01.994Z,1012.39
2022-09-05T16:15:45.279Z,1012.38
2022-09-05T16:20:57.103Z,1012.38
2022-09-05T16:23:13.392Z,1012.42
2022-09-05T16:23:14.097Z,1012.42
2022-09-05T16:23:17.780Z,1012.37
2022-09-05T16:23:26.987Z,1012.42
2022-09-05T16:23:30.071Z,1012.45
2022-09-05T16:23:31.186Z,1012.45
2022-09-05T16:23:32.265Z,1012.40
2022-09-05T16:24:06.010Z,1012.42
2022-09-05T16:25:03.085Z,1012.40
2022-09-05T16:26:03.036Z,1012.33
2022-09-05T16:27:03.600Z,1012.33
2022-09-05T16:28:03.044Z,1012.35
2022-09-05T16:29:03.062Z,1012.30
2022-09-05T16:30:03.033Z,1012.30
2022-09-05T16:31:03.130Z,1012.29
2022-09-05T16:32:02.215Z,1012.30